createdAt,value
2022-08-17T00:00:52.130Z,0.00
2022-08-17T00:01:52.025Z,0.00
2022-08-17T00:02:50.281Z,0.00
2022-08-17T00:03:50.115Z,0.00
2022-08-17T00:04:50.788Z,0.00
2022-08-17T00:05:50.105Z,0.00
2022-08-17T00:06:50.088Z,0.00
2022-08-17T00:07:50.272Z,0.00
2022-08-17T00:08:50.024Z,0.00
2022-08-17T00:09:50.070Z,0.00
2022-08-17T00:10:50.058Z,0.00
2022-08-17T00:12:41.309Z,0.00
2022-08-17T00:12:50.016Z,0.00
2022-08-17T00:13:50.042Z,0.00
2022-08-17T00:14:50.022Z,0.00
2022-08-17T00:15:49.948Z,0.00
2022-08-17T00:16:56.082Z,0.00
2022-08-17T00:17:49.963Z,0.00
2022-08-17T00:19:06.324Z,0.00
2022-08-17T00:19:49.907Z,0.00
2022-08-17T00:20:49.909Z,0.00
2022-08-17T00:22:29.540Z,0.00
2022-08-17T00:22:50.268Z,0.00
2022-08-17T00:23:49.884Z,0.00
2022-08-17T00:24:49.837Z,0.00
2022-08-17T00:25:49.792Z,0.00
2022-08-17T00:26:49.805Z,0.00
2022-08-17T00:27:49.793Z,0.00
2022-08-17T00:28:49.802Z,0.00
2022-08-17T00:29:49.760Z,0.00
2022-08-17T00:30:53.001Z,0.00
2022-08-17T00:31:49.759Z,0.00
2022-08-17T00:33:12.432Z,0.00
2022-08-17T00:33:49.707Z,0.00
2022-08-17T00:34:49.692Z,0.00
2022-08-17T00:35:49.723Z,0.00
2022-08-17T00:36:49.732Z,0.00
2022-08-17T00:37:49.690Z,0.00
2022-08-17T00:38:49.672Z,0.00
2022-08-17T00:39:49.708Z,0.00
2022-08-17T00:40:49.621Z,0.00
2022-08-17T00:41:49.663Z,0.00
2022-08-17T00:42:49.777Z,0.00
2022-08-17T00:43:49.591Z,0.00
2022-08-17T00:44:49.547Z,0.00
2022-08-17T00:45:49.557Z,0.00
2022-08-17T00:46:49.546Z,0.00
2022-08-17T00:47:49.526Z,0.00
2022-08-17T00:48:49.499Z,0.00
2022-08-17T00:49:49.507Z,0.00
2022-08-17T00:50:49.482Z,0.00
2022-08-17T00:51:49.495Z,0.00
2022-08-17T00:52:49.632Z,0.00
2022-08-17T00:53:49.464Z,0.00
2022-08-17T00:54:49.406Z,0.00
2022-08-17T00:55:49.522Z,0.00
2022-08-17T00:56:49.416Z,0.00
2022-08-17T00:57:53.368Z,0.00
2022-08-17T00:58:49.385Z,0.00
2022-08-17T01:00:00.612Z,0.00
2022-08-17T01:00:49.411Z,0.00
2022-08-17T01:01:49.330Z,0.00
2022-08-17T01:02:49.346Z,0.00
2022-08-17T01:03:49.345Z,0.00
2022-08-17T01:04:49.316Z,0.00
2022-08-17T01:05:49.309Z,0.00
2022-08-17T01:06:49.264Z,0.00
2022-08-17T01:07:49.276Z,0.00
2022-08-17T01:08:49.312Z,0.00
2022-08-17T01:09:49.238Z,0.00
2022-08-17T01:11:00.583Z,0.00
2022-08-17T01:11:49.273Z,0.00
2022-08-17T01:12:49.361Z,0.00
2022-08-17T01:13:49.149Z,0.00
2022-08-17T01:14:49.200Z,0.00
2022-08-17T01:15:49.140Z,0.00
2022-08-17T01:16:49.206Z,0.00
2022-08-17T01:17:49.122Z,0.00
2022-08-17T01:18:49.150Z,0.00
2022-08-17T01:19:49.081Z,0.00
2022-08-17T01:20:49.109Z,0.00
2022-08-17T01:21:49.097Z,0.00
2022-08-17T01:22:49.234Z,0.00
2022-08-17T01:23:49.038Z,0.00
2022-08-17T01:24:49.052Z,0.00
2022-08-17T01:25:49.187Z,0.00
2022-08-17T01:26:49.090Z,0.00
2022-08-17T01:27:48.981Z,0.00
2022-08-17T01:28:55.110Z,0.00
2022-08-17T01:29:49.010Z,0.00
2022-08-17T01:30:58.678Z,0.00
2022-08-17T01:31:48.929Z,0.00
2022-08-17T01:32:49.156Z,0.00
2022-08-17T01:33:48.883Z,0.00
2022-08-17T01:34:50.606Z,0.00
2022-08-17T01:35:48.862Z,0.00
2022-08-17T01:36:48.919Z,0.00
2022-08-17T01:37:48.911Z,0.00
2022-08-17T01:38:48.853Z,0.00
2022-08-17T01:39:48.877Z,0.00
2022-08-17T01:40:48.806Z,0.00
2022-08-17T01:41:48.839Z,0.00
2022-08-17T01:42:49.053Z,0.00
2022-08-17T01:43:48.781Z,0.00
2022-08-17T01:44:48.756Z,0.00
2022-08-17T01:45:48.753Z,0.00
2022-08-17T01:46:48.750Z,0.00
2022-08-17T01:47:48.752Z,0.00
2022-08-17T01:48:48.777Z,0.00
2022-08-17T01:49:48.656Z,0.00
2022-08-17T01:50:48.680Z,0.00
2022-08-17T01:51:48.653Z,0.00
2022-08-17T01:52:49.054Z,0.00
2022-08-17T01:53:48.610Z,0.00
2022-08-17T01:54:48.625Z,0.00
2022-08-17T01:55:48.620Z,0.00
2022-08-17T01:56:48.613Z,0.00
2022-08-17T01:57:48.588Z,0.00
2022-08-17T01:58:48.627Z,0.00
2022-08-17T01:59:48.577Z,0.00
2022-08-17T02:01:00.732Z,0.00
2022-08-17T02:01:48.557Z,0.00
2022-08-17T02:02:48.619Z,0.00
2022-08-17T02:03:56.236Z,0.00
2022-08-17T02:04:48.486Z,0.00
2022-08-17T02:05:48.453Z,0.00
2022-08-17T02:06:54.219Z,0.00
2022-08-17T02:08:00.210Z,0.00
2022-08-17T02:09:01.539Z,0.00
2022-08-17T02:09:52.581Z,0.00
2022-08-17T02:10:48.445Z,0.00
2022-08-17T02:11:48.440Z,0.00
2022-08-17T02:12:48.401Z,0.00
2022-08-17T02:13:48.330Z,0.00
2022-08-17T02:14:48.378Z,0.00
2022-08-17T02:15:48.339Z,0.00
2022-08-17T02:16:48.334Z,0.00
2022-08-17T02:17:48.300Z,0.00
2022-08-17T02:18:48.293Z,0.00
2022-08-17T02:19:48.295Z,0.00
2022-08-17T02:20:48.311Z,0.00
2022-08-17T02:21:48.249Z,0.00
2022-08-17T02:22:48.393Z,0.00
2022-08-17T02:23:48.231Z,0.00
2022-08-17T02:24:59.509Z,0.00
2022-08-17T02:25:48.227Z,0.00
2022-08-17T02:26:48.170Z,0.00
2022-08-17T02:27:48.127Z,0.00
2022-08-17T02:28:48.178Z,0.00
2022-08-17T02:29:48.185Z,0.00
2022-08-17T02:30:59.056Z,0.00
2022-08-17T02:31:48.105Z,0.00
2022-08-17T02:32:48.166Z,0.00
2022-08-17T02:33:56.584Z,0.00
2022-08-17T02:34:48.101Z,0.00
2022-08-17T02:35:48.050Z,0.00
2022-08-17T02:36:48.074Z,0.00
2022-08-17T02:37:48.958Z,0.00
2022-08-17T02:38:48.027Z,0.00
2022-08-17T02:39:48.027Z,0.00
2022-08-17T02:40:47.991Z,0.00
2022-08-17T02:41:47.956Z,0.00
2022-08-17T02:42:47.941Z,0.00
2022-08-17T02:43:47.922Z,0.00
2022-08-17T02:44:47.937Z,0.00
2022-08-17T02:45:47.958Z,0.00
2022-08-17T02:46:47.915Z,0.00
2022-08-17T02:47:47.877Z,0.00
2022-08-17T02:48:47.916Z,0.00
2022-08-17T02:49:49.365Z,0.00
2022-08-17T02:50:47.873Z,0.00
2022-08-17T02:51:47.833Z,0.00
2022-08-17T02:52:55.231Z,0.00
2022-08-17T02:53:47.814Z,0.00
2022-08-17T02:54:47.842Z,0.00
2022-08-17T02:55:47.860Z,0.00
2022-08-17T02:56:47.775Z,0.00
2022-08-17T02:57:47.765Z,0.00
2022-08-17T02:58:47.771Z,0.00
2022-08-17T02:59:49.157Z,0.00
2022-08-17T03:00:47.710Z,0.00
2022-08-17T03:01:47.791Z,0.00
2022-08-17T03:02:47.874Z,0.00
2022-08-17T03:03:47.715Z,0.00
2022-08-17T03:04:47.654Z,0.00
2022-08-17T03:05:47.706Z,0.00
2022-08-17T03:06:47.650Z,0.00
2022-08-17T03:07:47.639Z,0.00
2022-08-17T03:08:47.635Z,0.00
2022-08-17T03:09:47.612Z,0.00
2022-08-17T03:10:47.644Z,0.00
2022-08-17T03:11:47.645Z,0.00
2022-08-17T03:12:47.596Z,0.00
2022-08-17T03:13:47.595Z,0.00
2022-08-17T03:14:47.535Z,0.00
2022-08-17T03:15:47.509Z,0.00
2022-08-17T03:16:47.528Z,0.00
2022-08-17T03:17:47.501Z,4.00
2022-08-17T03:18:47.458Z,4.00
2022-08-17T03:19:47.470Z,0.00
2022-08-17T03:20:47.432Z,4.00
2022-08-17T03:21:47.415Z,4.00
2022-08-17T03:22:53.086Z,4.00
2022-08-17T03:23:47.501Z,8.00
2022-08-17T03:24:47.366Z,8.00
2022-08-17T03:25:47.356Z,8.00
2022-08-17T03:26:47.361Z,12.00
2022-08-17T03:27:48.241Z,12.00
2022-08-17T03:28:47.323Z,12.00
2022-08-17T03:29:47.321Z,16.00
2022-08-17T03:30:47.308Z,20.00
2022-08-17T03:31:47.289Z,20.00
2022-08-17T03:32:47.344Z,24.00
2022-08-17T03:33:47.244Z,32.00
2022-08-17T03:34:47.258Z,36.00
2022-08-17T03:35:47.232Z,40.00
2022-08-17T03:36:47.231Z,48.00
2022-08-17T03:37:47.172Z,52.00
2022-08-17T03:38:47.185Z,60.00
2022-08-17T03:39:47.186Z,68.00
2022-08-17T03:40:57.510Z,76.00
2022-08-17T03:41:47.157Z,88.00
2022-08-17T03:42:47.150Z,100.00
2022-08-17T03:43:47.139Z,108.00
2022-08-17T03:44:47.101Z,120.00
2022-08-17T03:45:47.081Z,136.00
2022-08-17T03:46:47.077Z,148.00
2022-08-17T03:47:47.065Z,164.00
2022-08-17T03:48:47.065Z,176.00
2022-08-17T03:49:47.027Z,196.00
2022-08-17T03:50:47.022Z,212.00
2022-08-17T03:51:46.997Z,232.00
2022-08-17T03:52:46.986Z,248.00
2022-08-17T03:53:46.975Z,268.00
2022-08-17T03:54:46.972Z,288.00
2022-08-17T03:55:46.963Z,308.00
2022-08-17T03:56:46.969Z,332.00
2022-08-17T03:57:46.932Z,352.00
2022-08-17T03:58:46.904Z,376.00
2022-08-17T03:59:46.915Z,400.00
2022-08-17T04:00:46.906Z,424.00
2022-08-17T04:01:46.911Z,448.00
2022-08-17T04:02:46.906Z,476.00
2022-08-17T04:03:46.820Z,504.00
2022-08-17T04:04:46.837Z,532.00
2022-08-17T04:05:46.791Z,560.00
2022-08-17T04:06:46.819Z,588.00
2022-08-17T04:07:46.791Z,616.00
2022-08-17T04:08:46.778Z,648.00
2022-08-17T04:09:46.757Z,676.00
2022-08-17T04:10:46.720Z,704.00
2022-08-17T04:11:46.733Z,740.00
2022-08-17T04:12:46.799Z,768.00
2022-08-17T04:13:46.721Z,804.00
2022-08-17T04:14:53.030Z,840.00
2022-08-17T04:15:46.661Z,872.00
2022-08-17T04:16:47.057Z,904.00
2022-08-17T04:17:46.816Z,944.00
2022-08-17T04:18:47.169Z,984.00
2022-08-17T04:19:46.622Z,1024.00
2022-08-17T04:20:46.670Z,1068.00
2022-08-17T04:21:46.590Z,1104.00
2022-08-17T04:22:46.636Z,1144.00
2022-08-17T04:23:47.005Z,1184.00
2022-08-17T04:24:46.809Z,1232.00
2022-08-17T04:25:46.528Z,1276.00
2022-08-17T04:26:53.261Z,1328.00
2022-08-17T04:27:46.488Z,1384.00
2022-08-17T04:28:46.491Z,1440.00
2022-08-17T04:29:55.041Z,1492.00
2022-08-17T04:30:46.454Z,1544.00
2022-08-17T04:31:46.444Z,1596.00
2022-08-17T04:33:04.768Z,1652.00
2022-08-17T04:33:46.445Z,1712.00
2022-08-17T04:34:46.408Z,1772.00
2022-08-17T04:35:46.399Z,1840.00
2022-08-17T04:36:50.426Z,1904.00
2022-08-17T04:37:46.396Z,1972.00
2022-08-17T04:38:46.339Z,2044.00
2022-08-17T04:39:46.379Z,2116.00
2022-08-17T04:40:46.310Z,2180.00
2022-08-17T04:41:46.310Z,2236.00
2022-08-17T04:42:46.305Z,2292.00
2022-08-17T04:43:46.300Z,2352.00
2022-08-17T04:44:46.262Z,2404.00
2022-08-17T04:45:55.383Z,2440.00
2022-08-17T04:46:46.245Z,2464.00
2022-08-17T04:47:46.213Z,2496.00
2022-08-17T04:48:46.252Z,2540.00
2022-08-17T04:49:46.193Z,2588.00
2022-08-17T04:50:46.175Z,2632.00
2022-08-17T04:51:54.631Z,2652.00
2022-08-17T04:52:46.161Z,2664.00
2022-08-17T04:53:46.151Z,2672.00
2022-08-17T04:54:46.171Z,2676.00
2022-08-17T04:55:46.122Z,2688.00
2022-08-17T04:56:46.117Z,2696.00
2022-08-17T04:57:46.086Z,2700.00
2022-08-17T04:58:46.076Z,2720.00
2022-08-17T04:59:46.056Z,2760.00
2022-08-17T05:00:46.070Z,2788.00
2022-08-17T05:01:46.088Z,2792.00
2022-08-17T05:02:50.352Z,2780.00
2022-08-17T05:03:46.013Z,2768.00
2022-08-17T05:04:46.007Z,2744.00
2022-08-17T05:05:45.990Z,2732.00
2022-08-17T05:06:45.975Z,2732.00
2022-08-17T05:07:45.970Z,2748.00
2022-08-17T05:08:45.951Z,2776.00
2022-08-17T05:09:46.036Z,2812.00
2022-08-17T05:10:45.975Z,2844.00
2022-08-17T05:11:45.903Z,2900.00
2022-08-17T05:12:46.003Z,2960.00
2022-08-17T05:13:45.858Z,3024.00
2022-08-17T05:14:45.903Z,3096.00
2022-08-17T05:15:47.890Z,3180.00
2022-08-17T05:16:45.855Z,3268.00
2022-08-17T05:17:45.843Z,3352.00
2022-08-17T05:18:45.823Z,3424.00
2022-08-17T05:19:51.370Z,3484.00
2022-08-17T05:20:45.805Z,3540.00
2022-08-17T05:21:45.802Z,3584.00
2022-08-17T05:22:45.751Z,3624.00
2022-08-17T05:23:53.252Z,3660.00
2022-08-17T05:24:53.916Z,3684.00
2022-08-17T05:25:47.707Z,3716.00
2022-08-17T05:26:45.717Z,3740.00
2022-08-17T05:27:45.744Z,3764.00
2022-08-17T05:28:45.662Z,3792.00
2022-08-17T05:29:45.659Z,3856.00
2022-08-17T05:30:45.676Z,3920.00
2022-08-17T05:31:45.645Z,3964.00
2022-08-17T05:32:45.630Z,4024.00
2022-08-17T05:33:46.320Z,4060.00
2022-08-17T05:34:45.635Z,4100.00
2022-08-17T05:35:45.575Z,4124.00
2022-08-17T05:36:45.570Z,4160.00
2022-08-17T05:37:45.564Z,4248.00
2022-08-17T05:38:45.525Z,4316.00
2022-08-17T05:39:45.555Z,4352.00
2022-08-17T05:40:45.526Z,4396.00
2022-08-17T05:41:45.511Z,4428.00
2022-08-17T05:42:45.491Z,4448.00
2022-08-17T05:43:45.485Z,4464.00
2022-08-17T05:44:45.463Z,4472.00
2022-08-17T05:45:55.576Z,4456.00
2022-08-17T05:46:45.447Z,4440.00
2022-08-17T05:47:45.419Z,4424.00
2022-08-17T05:48:45.397Z,4468.00
2022-08-17T05:49:45.421Z,4492.00
2022-08-17T05:50:45.399Z,4500.00
2022-08-17T05:51:45.381Z,4532.00
2022-08-17T05:52:45.338Z,4560.00
2022-08-17T05:53:45.333Z,4568.00
2022-08-17T05:54:45.332Z,4556.00
2022-08-17T05:55:45.310Z,4548.00
2022-08-17T05:56:45.326Z,4544.00
2022-08-17T05:57:53.310Z,4556.00
2022-08-17T05:58:45.263Z,4608.00
2022-08-17T05:59:45.292Z,4688.00
2022-08-17T06:00:45.317Z,4752.00
2022-08-17T06:01:45.243Z,4796.00
2022-08-17T06:02:47.889Z,4848.00
2022-08-17T06:03:45.222Z,4892.00
2022-08-17T06:04:45.205Z,4976.00
2022-08-17T06:05:45.191Z,5076.00
2022-08-17T06:06:45.187Z,4992.00
2022-08-17T06:07:45.162Z,4984.00
2022-08-17T06:08:45.161Z,4888.00
2022-08-17T06:09:45.121Z,4748.00
2022-08-17T06:10:45.139Z,4700.00
2022-08-17T06:11:45.093Z,4800.00
2022-08-17T06:12:45.075Z,4824.00
2022-08-17T06:13:45.755Z,4692.00
2022-08-17T06:14:45.085Z,4764.00
2022-08-17T06:15:45.050Z,4964.00
2022-08-17T06:16:45.043Z,4920.00
2022-08-17T06:17:45.028Z,4884.00
2022-08-17T06:18:45.034Z,4808.00
2022-08-17T06:19:44.984Z,4736.00
2022-08-17T06:20:44.983Z,4748.00
2022-08-17T06:21:45.597Z,4796.00
2022-08-17T06:22:44.996Z,4872.00
2022-08-17T06:23:45.003Z,4940.00
2022-08-17T06:24:44.923Z,5000.00
2022-08-17T06:25:44.919Z,5000.00
2022-08-17T06:26:44.892Z,4980.00
2022-08-17T06:27:44.909Z,5052.00
2022-08-17T06:28:44.870Z,5228.00
2022-08-17T06:29:44.889Z,5216.00
2022-08-17T06:30:59.219Z,5220.00
2022-08-17T06:31:49.465Z,5296.00
2022-08-17T06:32:44.835Z,5252.00
2022-08-17T06:33:44.861Z,5552.00
2022-08-17T06:34:44.801Z,5352.00
2022-08-17T06:35:44.814Z,5276.00
2022-08-17T06:36:44.826Z,5468.00
2022-08-17T06:37:44.803Z,5672.00
2022-08-17T06:38:44.761Z,5888.00
2022-08-17T06:39:44.824Z,5792.00
2022-08-17T06:40:44.698Z,5988.00
2022-08-17T06:41:44.696Z,6032.00
2022-08-17T06:42:54.882Z,6112.00
2022-08-17T06:43:47.921Z,6192.00
2022-08-17T06:44:51.443Z,6248.00
2022-08-17T06:45:44.658Z,6296.00
2022-08-17T06:46:44.647Z,6324.00
2022-08-17T06:47:44.613Z,6352.00
2022-08-17T06:48:44.611Z,6364.00
2022-08-17T06:49:44.630Z,6356.00
2022-08-17T06:50:44.595Z,6308.00
2022-08-17T06:51:44.577Z,6228.00
2022-08-17T06:52:46.371Z,6136.00
2022-08-17T06:53:44.564Z,6004.00
2022-08-17T06:54:44.510Z,5896.00
2022-08-17T06:55:44.530Z,5936.00
2022-08-17T06:56:53.808Z,6076.00
2022-08-17T06:57:44.480Z,6284.00
2022-08-17T06:58:44.481Z,6516.00
2022-08-17T06:59:55.044Z,6732.00
2022-08-17T07:00:44.520Z,6948.00
2022-08-17T07:01:44.444Z,7088.00
2022-08-17T07:02:52.052Z,7156.00
2022-08-17T07:03:44.401Z,7228.00
2022-08-17T07:04:44.421Z,7292.00
2022-08-17T07:05:44.453Z,7352.00
2022-08-17T07:06:44.376Z,7384.00
2022-08-17T07:07:44.364Z,7420.00
2022-08-17T07:08:44.367Z,7476.00
2022-08-17T07:09:44.344Z,7544.00
2022-08-17T07:10:44.310Z,7640.00
2022-08-17T07:11:44.307Z,7772.00
2022-08-17T07:12:44.306Z,8000.00
2022-08-17T07:13:44.333Z,8220.00
2022-08-17T07:14:44.286Z,8480.00
2022-08-17T07:15:44.332Z,8664.00
2022-08-17T07:16:44.242Z,8768.00
2022-08-17T07:17:47.194Z,8800.00
2022-08-17T07:18:44.243Z,8744.00
2022-08-17T07:19:44.208Z,8624.00
2022-08-17T07:20:44.242Z,8468.00
2022-08-17T07:21:44.181Z,8272.00
2022-08-17T07:22:57.509Z,8180.00
2022-08-17T07:23:44.252Z,8088.00
2022-08-17T07:24:44.158Z,8104.00
2022-08-17T07:25:44.156Z,8188.00
2022-08-17T07:26:44.099Z,8336.00
2022-08-17T07:27:44.152Z,8496.00
2022-08-17T07:28:44.103Z,8648.00
2022-08-17T07:29:44.122Z,8824.00
2022-08-17T07:30:47.095Z,8872.00
2022-08-17T07:31:44.060Z,8856.00
2022-08-17T07:32:44.070Z,8792.00
2022-08-17T07:33:44.007Z,8676.00
2022-08-17T07:34:44.003Z,8508.00
2022-08-17T07:35:44.133Z,8232.00
2022-08-17T07:36:44.012Z,8452.00
2022-08-17T07:37:43.980Z,8580.00
2022-08-17T07:38:43.975Z,8596.00
2022-08-17T07:40:14.785Z,8792.00
2022-08-17T07:40:43.943Z,8932.00
2022-08-17T07:41:57.930Z,9044.00
2022-08-17T07:42:46.783Z,9212.00
2022-08-17T07:43:43.952Z,9292.00
2022-08-17T07:44:43.865Z,9252.00
2022-08-17T07:45:43.879Z,9164.00
2022-08-17T07:46:43.839Z,9260.00
2022-08-17T07:47:43.961Z,9336.00
2022-08-17T07:48:43.850Z,9472.00
2022-08-17T07:49:43.837Z,9524.00
2022-08-17T07:50:49.613Z,9568.00
2022-08-17T07:51:43.833Z,9600.00
2022-08-17T07:52:51.997Z,9744.00
2022-08-17T07:53:43.865Z,9908.00
2022-08-17T07:54:43.742Z,10008.00
2022-08-17T07:55:43.714Z,10204.00
2022-08-17T07:56:43.719Z,10384.00
2022-08-17T07:57:43.895Z,10464.00
2022-08-17T07:58:43.699Z,10472.00
2022-08-17T07:59:43.701Z,10540.00
2022-08-17T08:00:43.659Z,10572.00
2022-08-17T08:01:43.755Z,10664.00
2022-08-17T08:02:43.630Z,10988.00
2022-08-17T08:03:43.620Z,11160.00
2022-08-17T08:04:59.633Z,11376.00
2022-08-17T08:05:49.667Z,11684.00
2022-08-17T08:06:43.694Z,11800.00
2022-08-17T08:07:43.654Z,11948.00
2022-08-17T08:08:43.541Z,12052.00
2022-08-17T08:09:43.536Z,12132.00
2022-08-17T08:10:45.188Z,12324.00
2022-08-17T08:11:44.411Z,12344.00
2022-08-17T08:12:43.552Z,12328.00
2022-08-17T08:13:43.558Z,12220.00
2022-08-17T08:14:43.486Z,12188.00
2022-08-17T08:15:45.259Z,12216.00
2022-08-17T08:16:43.517Z,12356.00
2022-08-17T08:17:43.459Z,12704.00
2022-08-17T08:18:53.890Z,12716.00
2022-08-17T08:19:43.433Z,12836.00
2022-08-17T08:20:52.763Z,12964.00
2022-08-17T08:21:43.393Z,13668.00
2022-08-17T08:22:43.359Z,13548.00
2022-08-17T08:23:43.369Z,13716.00
2022-08-17T08:24:43.326Z,20608.00
2022-08-17T08:25:43.318Z,38720.00
2022-08-17T08:26:43.336Z,46784.00
2022-08-17T08:27:43.355Z,42752.00
2022-08-17T08:28:43.337Z,26464.00
2022-08-17T08:29:43.278Z,14476.00
2022-08-17T08:30:43.252Z,17472.00
2022-08-17T08:31:43.249Z,36384.00
2022-08-17T08:32:43.247Z,56448.00
2022-08-17T08:33:43.289Z,58560.00
2022-08-17T08:34:47.400Z,59232.00
2022-08-17T08:35:43.308Z,58464.00
2022-08-17T08:37:12.763Z,58048.00
2022-08-17T08:37:43.620Z,46688.00
2022-08-17T08:38:43.176Z,24096.00
2022-08-17T08:39:43.207Z,12824.00
2022-08-17T08:40:43.164Z,12832.00
2022-08-17T08:41:44.011Z,17600.00
2022-08-17T08:42:43.123Z,39616.00
2022-08-17T08:43:43.141Z,56352.00
2022-08-17T08:45:00.207Z,58016.00
2022-08-17T08:45:43.088Z,57696.00
2022-08-17T08:46:43.096Z,57888.00
2022-08-17T08:47:43.078Z,59424.00
2022-08-17T08:48:53.899Z,60128.00
2022-08-17T08:50:03.305Z,59392.00
2022-08-17T08:50:43.029Z,61280.00
2022-08-17T08:51:43.002Z,63744.00
2022-08-17T08:52:42.997Z,62784.00
2022-08-17T08:53:42.991Z,63872.00
2022-08-17T08:54:42.999Z,62560.00
2022-08-17T08:55:42.977Z,61248.00
2022-08-17T08:56:53.997Z,64672.00
2022-08-17T08:57:42.938Z,63360.00
2022-08-17T08:58:43.043Z,63264.00
2022-08-17T08:59:44.322Z,65376.00
2022-08-17T09:00:42.943Z,65696.00
2022-08-17T09:01:42.991Z,64832.00
2022-08-17T09:02:42.908Z,66624.00
2022-08-17T09:03:52.777Z,66272.00
2022-08-17T09:05:10.311Z,65344.00
2022-08-17T09:05:42.899Z,67744.00
2022-08-17T09:06:42.829Z,65088.00
2022-08-17T09:07:42.922Z,65760.00
2022-08-17T09:08:42.830Z,65824.00
2022-08-17T09:09:42.803Z,66880.00
2022-08-17T09:10:42.777Z,69664.00
2022-08-17T09:12:01.870Z,67328.00
2022-08-17T09:12:42.752Z,65440.00
2022-08-17T09:13:42.749Z,67456.00
2022-08-17T09:14:46.812Z,67840.00
2022-08-17T09:15:42.728Z,66720.00
2022-08-17T09:16:42.693Z,67392.00
2022-08-17T09:17:42.769Z,67808.00
2022-08-17T09:19:02.550Z,70688.00
2022-08-17T09:19:42.695Z,70912.00
2022-08-17T09:20:46.579Z,69536.00
2022-08-17T09:21:48.772Z,72064.00
2022-08-17T09:22:42.696Z,72832.00
2022-08-17T09:23:42.644Z,73856.00
2022-08-17T09:24:42.617Z,70048.00
2022-08-17T09:25:42.619Z,73792.00
2022-08-17T09:26:42.585Z,77408.00
2022-08-17T09:27:42.597Z,71648.00
2022-08-17T09:28:42.557Z,75072.00
2022-08-17T09:29:42.609Z,79936.00
2022-08-17T09:30:42.572Z,77792.00
2022-08-17T09:31:49.283Z,76096.00
2022-08-17T09:32:42.567Z,79392.00
2022-08-17T09:33:42.500Z,78656.00
2022-08-17T09:34:43.530Z,75840.00
2022-08-17T09:35:42.509Z,81984.00
2022-08-17T09:36:42.498Z,84320.00
2022-08-17T09:37:42.480Z,78976.00
2022-08-17T09:38:42.476Z,82080.00
2022-08-17T09:39:42.622Z,82720.00
2022-08-17T09:40:42.446Z,78816.00
2022-08-17T09:41:48.460Z,76512.00
2022-08-17T09:42:42.428Z,49760.00
2022-08-17T09:43:42.385Z,19264.00
2022-08-17T09:44:42.421Z,16532.00
2022-08-17T09:45:42.383Z,16660.00
2022-08-17T09:46:42.550Z,17040.00
2022-08-17T09:47:42.825Z,17664.00
2022-08-17T09:48:42.377Z,38560.00
2022-08-17T09:49:42.340Z,68832.00
2022-08-17T09:51:05.453Z,69440.00
2022-08-17T09:51:42.314Z,68768.00
2022-08-17T09:52:42.342Z,44704.00
2022-08-17T09:53:44.776Z,44960.00
2022-08-17T09:54:42.296Z,64544.00
2022-08-17T09:55:42.251Z,47552.00
2022-08-17T09:56:46.153Z,32448.00
2022-08-17T09:57:42.275Z,60416.00
2022-08-17T09:58:42.218Z,76736.00
2022-08-17T09:59:42.214Z,80896.00
2022-08-17T10:00:42.213Z,82368.00
2022-08-17T10:01:42.222Z,82656.00
2022-08-17T10:02:42.160Z,84288.00
2022-08-17T10:03:42.191Z,83232.00
2022-08-17T10:04:42.168Z,83488.00
2022-08-17T10:05:42.155Z,79968.00
2022-08-17T10:06:42.161Z,81696.00
2022-08-17T10:07:42.122Z,79712.00
2022-08-17T10:08:42.242Z,81952.00
2022-08-17T10:09:42.166Z,84768.00
2022-08-17T10:10:42.085Z,84160.00
2022-08-17T10:11:44.875Z,83552.00
2022-08-17T10:12:46.506Z,86656.00
2022-08-17T10:13:52.785Z,83744.00
2022-08-17T10:14:43.796Z,81568.00
2022-08-17T10:15:42.727Z,82976.00
2022-08-17T10:16:42.063Z,79296.00
2022-08-17T10:17:42.007Z,79840.00
2022-08-17T10:18:42.006Z,78752.00
2022-08-17T10:19:44.100Z,77056.00
2022-08-17T10:20:42.024Z,77376.00
2022-08-17T10:21:41.954Z,80160.00
2022-08-17T10:22:41.975Z,78016.00
2022-08-17T10:23:41.957Z,60736.00
2022-08-17T10:25:21.738Z,69664.00
2022-08-17T10:25:54.715Z,75168.00
2022-08-17T10:26:56.208Z,76544.00
2022-08-17T10:27:41.918Z,70048.00
2022-08-17T10:28:41.905Z,60832.00
2022-08-17T10:29:48.887Z,45152.00
2022-08-17T10:30:41.883Z,35712.00
2022-08-17T10:31:41.965Z,35232.00
2022-08-17T10:32:41.873Z,41824.00
2022-08-17T10:33:41.838Z,72096.00
2022-08-17T10:34:42.018Z,79168.00
2022-08-17T10:35:41.797Z,76864.00
2022-08-17T10:36:41.795Z,74688.00
2022-08-17T10:37:41.790Z,80352.00
2022-08-17T10:38:41.799Z,80960.00
2022-08-17T10:39:52.322Z,83904.00
2022-08-17T10:40:41.766Z,78656.00
2022-08-17T10:41:41.757Z,79680.00
2022-08-17T10:42:41.724Z,84192.00
2022-08-17T10:43:41.788Z,85632.00
2022-08-17T10:44:41.722Z,85248.00
2022-08-17T10:45:41.703Z,64384.00
2022-08-17T10:46:41.705Z,41024.00
2022-08-17T10:48:00.058Z,53280.00
2022-08-17T10:48:41.691Z,31328.00
2022-08-17T10:49:41.648Z,27104.00
2022-08-17T10:50:41.653Z,26720.00
2022-08-17T10:51:41.694Z,27072.00
2022-08-17T10:52:41.625Z,26944.00
2022-08-17T10:53:41.632Z,27264.00
2022-08-17T10:54:41.627Z,27520.00
2022-08-17T10:55:41.570Z,27712.00
2022-08-17T10:56:41.614Z,28064.00
2022-08-17T10:57:41.555Z,31520.00
2022-08-17T10:58:41.563Z,46880.00
2022-08-17T10:59:41.542Z,38464.00
2022-08-17T11:00:41.608Z,73728.00
2022-08-17T11:01:41.489Z,32992.00
2022-08-17T11:02:41.506Z,26656.00
2022-08-17T11:03:41.488Z,26432.00
2022-08-17T11:04:41.463Z,26176.00
2022-08-17T11:05:43.852Z,24416.00
2022-08-17T11:06:41.435Z,21920.00
2022-08-17T11:07:41.437Z,20672.00
2022-08-17T11:08:41.523Z,20512.00
2022-08-17T11:09:41.444Z,20864.00
2022-08-17T11:10:41.406Z,22048.00
2022-08-17T11:11:41.400Z,22880.00
2022-08-17T11:12:42.402Z,23360.00
2022-08-17T11:13:41.376Z,24576.00
2022-08-17T11:14:41.373Z,24640.00
2022-08-17T11:15:41.367Z,23488.00
2022-08-17T11:16:41.323Z,21760.00
2022-08-17T11:17:41.331Z,21248.00
2022-08-17T11:18:41.311Z,21280.00
2022-08-17T11:19:41.286Z,21728.00
2022-08-17T11:20:41.266Z,22176.00
2022-08-17T11:21:41.290Z,23424.00
2022-08-17T11:22:41.279Z,29952.00
2022-08-17T11:23:41.222Z,44512.00
2022-08-17T11:24:44.610Z,90784.00
2022-08-17T11:25:41.226Z,50656.00
2022-08-17T11:26:41.241Z,81952.00
2022-08-17T11:27:41.210Z,89696.00
2022-08-17T11:28:41.185Z,41376.00
2022-08-17T11:29:41.175Z,35872.00
2022-08-17T11:30:41.173Z,35552.00
2022-08-17T11:31:41.358Z,37728.00
2022-08-17T11:32:47.239Z,34848.00
2022-08-17T11:33:41.141Z,59360.00
2022-08-17T11:34:41.127Z,45760.00
2022-08-17T11:35:41.113Z,34688.00
2022-08-17T11:36:41.088Z,34368.00
2022-08-17T11:37:41.068Z,35104.00
2022-08-17T11:38:41.062Z,41024.00
2022-08-17T11:39:41.106Z,45472.00
2022-08-17T11:40:43.774Z,74528.00
2022-08-17T11:41:41.597Z,69216.00
2022-08-17T11:42:41.027Z,39552.00
2022-08-17T11:43:42.974Z,34560.00
2022-08-17T11:44:40.995Z,33536.00
2022-08-17T11:45:40.968Z,33824.00
2022-08-17T11:46:41.103Z,60768.00
2022-08-17T11:47:40.959Z,34528.00
2022-08-17T11:48:40.990Z,36736.00
2022-08-17T11:49:41.032Z,37408.00
2022-08-17T11:50:40.938Z,40064.00
2022-08-17T11:51:40.976Z,47104.00
2022-08-17T11:52:40.915Z,105408.00
2022-08-17T11:53:41.474Z,102496.00
2022-08-17T11:54:40.958Z,106368.00
2022-08-17T11:55:44.873Z,103680.00
2022-08-17T11:56:40.891Z,97632.00
2022-08-17T11:57:40.880Z,97408.00
2022-08-17T11:58:40.907Z,101504.00
2022-08-17T11:59:40.820Z,99200.00
2022-08-17T12:00:40.844Z,96416.00
2022-08-17T12:01:40.857Z,95168.00
2022-08-17T12:02:44.420Z,48576.00
2022-08-17T12:03:40.797Z,35232.00
2022-08-17T12:04:40.847Z,26464.00
2022-08-17T12:05:40.818Z,23808.00
2022-08-17T12:06:40.751Z,23136.00
2022-08-17T12:07:40.780Z,22688.00
2022-08-17T12:08:40.735Z,21472.00
2022-08-17T12:09:40.700Z,21696.00
2022-08-17T12:10:40.685Z,23840.00
2022-08-17T12:11:57.808Z,24544.00
2022-08-17T12:12:40.721Z,28096.00
2022-08-17T12:13:40.657Z,96352.00
2022-08-17T12:15:08.186Z,52992.00
2022-08-17T12:15:40.695Z,30240.00
2022-08-17T12:16:40.632Z,27584.00
2022-08-17T12:17:42.893Z,27552.00
2022-08-17T12:18:40.637Z,28960.00